CheckWX is a tool to help pilots better visualize weather data.  It is not intended as a substitute for an official pre-flight weather briefing.

09:05:55 UTC

FYWE TAF
Eros Airport
Windhoek, Namibia
TAF FYWE 310200Z 3103/3112 06006KT CAVOK

May-31@
03:00 UTC

May-31 @ 03:00 UTC

May-31@
12:00 UTC

May-31 @ 12:00 UTC

TAF FYWE 310200Z 3103/3112 06006KT CAVOK
Wind
  • 060° at 6 KTS
Conditions
No significant weather
Cloud Levels
  • No significant clouds